Regional Weather Synopsis
Issued by NWS Denver/Boulder, CO

Home | Current Version | Previous Version | Text Only | Print | Product List | Glossary On
Versions: 1 2 3 4 5 6 7 8 9 10 11 12 13 14 15 16 17 18 19 20 21 22 23 24 25 26 27 28 29 30 31 32 33 34 35 36 37 38 39 40 41 42 43 44 45 46 47 48 49 50
000
NZUS99 KBOU 230547
SYNBOU

Hot-Air Balloon Forecast for Colorado
National Weather Service Denver/Boulder, Colorado
2245 MST Friday, February 22, 2019


* * * * * Northeast Colorado * * * * *

METAR KFNL 230456Z AUTO 25005KT 5SM BR FEW060 OVC075 M05/M07 A2983 RMK
       AO2 SNE48 SLP138 P0000 T10501067 FZRANO
METAR KFNL 230356Z AUTO 23005KT 6SM -SN BR FEW048 OVC075 M05/M07 A2984
       RMK AO2 SLP141 P0000 T10501067 FZRANO
SPECI KFNL 230317Z AUTO 00000KT 5SM -SN BR FEW013 BKN032 OVC040 M04/M07
       A2983 RMK AO2 P0000 FZRANO

METAR KGXY 230456Z AUTO 15004KT 5SM -SN BR FEW044 M04/M05 A2985 RMK AO2
       SLP156 P0000 T10391050 FZRANO
SPECI KGXY 230438Z AUTO 00000KT 4SM -SN BR FEW007 SCT022 BKN044 M04/M05
       A2984 RMK AO2 P0000 FZRANO
SPECI KGXY 230426Z AUTO 24004KT 3SM -SN BR SCT007 BKN022 M04/M05 A2985
       RMK AO2 P0000 FZRANO

METAR KLMO 230535Z AUTO 00000KT 5SM -SN SCT032 OVC040 M03/M05 A2984 RMK
       AO2 T10351052
METAR KLMO 230515Z AUTO 00000KT 5SM -SN SCT029 BKN033 OVC039 M04/M05
       A2984 RMK AO2 T10361054
METAR KLMO 230455Z AUTO 00000KT 4SM -SN SCT019 OVC025 M03/M05 A2984 RMK
       AO2 T10351053

METAR KBDU 230530Z AUTO 00000KT 3SM -SN OVC038 M04/M05 A2981 RMK AO2
METAR KBDU 230512Z AUTO 00000KT 3SM -SN BKN015 SCT023 OVC038 M04/M05
       A2981 RMK AO2
METAR KBDU 230454Z AUTO 00000KT 2 1/2SM -SN OVC013 M04/M05 A2980 RMK AO2
       P0001

METAR KEIK 230536Z AUTO 00000KT 3SM -SN BKN011 OVC018 M04/M05 A2988 RMK
       AO2 T10451053
METAR KEIK 230518Z AUTO 00000KT 4SM BR SCT010 M04/M05 A2989 RMK AO2
       T10451053
METAR KEIK 230454Z AUTO 35003KT 3SM -SN OVC008 M04/M05 A2986 RMK AO2
       T10451052

KBJC 230527Z 2306/2406 34007KT 3SM -SN BR SCT015 BKN025 OVC040
      TEMPO 2306/2307 2SM -SN BR BKN015
     FM231400 21005KT P6SM SCT020 BKN120
     FM231800 31012G20KT P6SM SCT220
      TEMPO 2321/2324 32018G32KT
     FM240200 10006KT P6SM FEW220
METAR KBJC 230530Z AUTO 00000KT 1 3/4SM BKN009 OVC017 M05/M05 A2981 RMK
       AO2 PWINO
METAR KBJC 230512Z AUTO 00000KT 2 1/2SM SCT015 BKN029 OVC036 M05/M05
       A2981 RMK AO2 PWINO
METAR KBJC 230454Z AUTO 32004KT 3SM OVC015 M05/M05 A2981 RMK AO2
       PWINO

KDEN 230525Z 2306/2412 36005KT 2SM -SN BR FEW010 OVC015
      TEMPO 2306/2307 3/4SM -SN BR OVC010
     FM231000 25005KT 5SM BR VCSH OVC015
     FM231300 19005KT P6SM SCT006 BKN015 BKN070
     FM231600 26008KT P6SM SCT220
     FM231900 01012KT P6SM SCT220
     FM232100 32015G21KT P6SM FEW220
      TEMPO 2322/2324 28016G26KT
     FM240200 33008KT P6SM FEW120
SPECI KDEN 230509Z 32003KT 1/4SM R35L/P6000FT -SN BR VV016 M05/M06 A2981
       RMK AO2 SFC VIS 1 P0001 T10501061
METAR KDEN 230453Z 35003KT 1/4SM R35L/6000VP6000FT -SN BR VV011 M05/M06
       A2981 RMK AO2 SFC VIS 3/4 SLP124 P0007 T10501061
SPECI KDEN 230410Z 33008KT 1/4SM R35L/5000V5500FT -SN BR FEW005 OVC009
       M05/M06 A2980 RMK AO2 SFC VIS 3/4 P0002 T10501061

METAR KFTG 230350Z 00000KT 1/4SM SN OVC006 M04/M05 A2982
SPECI KFTG 230315Z 35003KT 1/4SM SN OVC006 M04/M04 A2980
METAR KFTG 230250Z 35003KT 1/2SM SN OVC006 M03/M04 A2980

KBKF 230100Z 2301/2407 14009KT 1600 -SHSN BKN005 610159
     QNH2965INS
     BECMG 2304/2305 01009KT 6000 -SN BKN009 620109 QNH2975INS
     BECMG 2308/2309 35012G18KT 6000 -SN BKN010 OVC020 620109
     QNH2975INS
     BECMG 2312/2313 33010G15KT 9999 NSW BKN080 620806
     QNH2980INS
     BECMG 2317/2318 33012G18KT 9999 SCT080 QNH2984INS
     BECMG 2405/2406 30009KT 9999 FEW100 QNH2990INS TX00/2321Z
     TNM05/2312Z
METAR KBKF 230458Z 34003KT 1/2SM R32/2400FT SN FZFG VV002 M06/M06 A2981
       RMK AO2A SLP127 SNINCR 2/7 P0019 T10601060
METAR KBKF 230358Z 32005KT 1/2SM R32/2400FT SN FZFG VV002 M06/M06 A2980
       RMK AO2A SLP123 SNINCR 2/5 P0021 T10581058

KAPA 230525Z 2306/2406 03005KT 2SM -SN BR FEW005 OVC010
      TEMPO 2306/2308 1SM -SN BR VV005
     FM230900 34005KT 3SM -SN BR OVC010
     FM231500 19005KT P6SM SCT150
     FM231800 33012G20KT P6SM SCT200
      TEMPO 2319/2323 33018G32KT
     FM240200 08006KT P6SM FEW200
SPECI KAPA 230530Z 35003KT 1/2SM -SN BR VV012 M06/M07 A2979 RMK AO2 SFC
       VIS 3/4 P0002 T10611067
METAR KAPA 230453Z 00000KT 1/2SM -SN BR VV008 M06/M07 A2980 RMK AO2 SFC
       VIS 3/4 SLP139 P0005 T10611067
SPECI KAPA 230435Z 01004KT 1/2SM -SN BR VV006 M06/M07 A2980 RMK AO2 SFC
       VIS 3/4 P0003 T10611067

METAR KMNH 230524Z AUTO 33009KT 1/2SM +SN OVC002 M08/M09 A2977 RMK
       AO2
METAR KMNH 230506Z AUTO 32008KT 1/2SM +SN OVC004 M07/M08 A2977 RMK
       AO2
METAR KMNH 230448Z AUTO 32005KT 3/4SM SN OVC004 M07/M08 A2977 RMK AO2
       P0001

METAR KFMM 230535Z AUTO 03006KT 3/4SM SN M05/M05 A2985 RMK AO2
       T10461055
METAR KFMM 230515Z AUTO 04004KT 1SM -SN M04/M05 A2985 RMK AO2
       T10451054
METAR KFMM 230455Z AUTO 04006KT 1SM SN M04/M05 A2984 RMK AO2
       T10451053

METAR KSTK 230530Z AUTO 00000KT 3/4SM SN OVC005 A2985 RMK AO2 P0002
METAR KSTK 230510Z AUTO 00000KT 1/2SM +SN OVC003 A2985 RMK AO2 P0001
METAR KSTK 230450Z AUTO 03004KT 3/4SM SN OVC003 A2984 RMK AO2 P0003

SPECI KAKO 230540Z AUTO 36007KT 1 3/4SM -SN BR OVC008 M04/M06 A2981 RMK
       AO2 P0002 T10441056
SPECI KAKO 230512Z AUTO 01009KT 1 1/2SM -SN BR OVC002 M04/M06 A2981 RMK
       AO2 P0001 T10441056
METAR KAKO 230453Z AUTO 02009KT 2SM -SN BR OVC002 M04/M05 A2982 RMK AO2
       UPE0357FZRAB0357E28SNB28E40B53 SLP138 P0000 I1003
       T10441050

SPECI KLIC 230459Z AUTO 35015KT 4SM -FZRA BR SCT005 OVC010 M05/M05 A2977
       RMK AO2 FZRAB59 CIG 008V013 P0000 I1000 T10501050
METAR KLIC 230455Z AUTO 36013KT 4SM BR BKN007 OVC010 M05/M05 A2978 RMK
       AO2 UPB18E30FZRAB00E08B30E54SNB08E18 CIG 004V009 SLP109 P0000
       I1003 T10501050
SPECI KLIC 230453Z AUTO 36014KT 3SM -FZRA BR OVC007 M05/M05 A2978 RMK
       AO2 UPB18E30FZRAB00E08B30SNB08E18 CIG 004V012 P0000 I1003

METAR KHEQ 230530Z AUTO 10004KT 1/2SM -SN OVC001 00/M01 A2983 RMK
       AO2
METAR KHEQ 230510Z AUTO 12008KT 1SM BR OVC003 00/00 A2985 RMK AO2
METAR KHEQ 230450Z AUTO 10006KT 1SM BR OVC003 01/00 A2985 RMK AO2

METAR K2V6 230529Z AUTO 00000KT 2SM UP OVC002 M01/M01 A2981 RMK AO2
METAR K2V6 230514Z AUTO 02004KT 2SM UP OVC002 M01/M01 A2981 RMK AO2
METAR K2V6 230449Z AUTO 02004KT 1 3/4SM UP OVC002 M01/M01 A2982 RMK
       AO2

METAR K2V5 230535Z AUTO 10009KT 2SM -SN OVC003 00/00 A2982 RMK AO2
METAR K2V5 230515Z AUTO 09008KT 2 1/2SM BR OVC003 00/00 A2983 RMK
       AO2
METAR K2V5 230455Z AUTO 09009KT 1 3/4SM BR OVC003 00/00 A2985 RMK
       AO2

METAR KITR 230453Z AUTO 05005KT 1/2SM FG VV002 01/01 A2980 RMK AO2
       SLP100 T00110006
SPECI KITR 230431Z AUTO 08004KT 1/2SM FG VV002 01/01 A2980 RMK AO2
       T00110006
SPECI KITR 230420Z AUTO 09005KT 1 3/4SM BR OVC002 02/01 A2980 RMK AO2
       T00170006

Sunrise/Sunset for 02/22/2019
Fort Collins - 06:44:18 MST / 17:43:13 MST
Denver       - 06:42:55 MST / 17:43:45 MST
Sterling     - 06:37:00 MST / 17:35:41 MST

Denver/Boulder (KFTG) 02/23/19 05:35 UTC
Radar VAD winds      Height      Dir/Spd(kt)
                  28000 FT MSL...211/051
                  26000 FT MSL...212/050
                  25000 FT MSL...209/048
                  24000 FT MSL...209/045
                  22000 FT MSL...204/040
                  20000 FT MSL...196/039
                  19000 FT MSL...190/042
                  18000 FT MSL...186/043
                  17000 FT MSL...185/039
                  16800 FT MSL...184/038
                  16000 FT MSL...182/030
                  15000 FT MSL...203/022
                  14600 FT MSL...185/011
                  13000 FT MSL...016/006
                  12700 FT MSL...015/008
                  12000 FT MSL...013/013
                  11200 FT MSL...017/013
                  11000 FT MSL...017/013
                  10000 FT MSL...022/011
                  10000 FT MSL...023/010
                   9000 FT MSL...026/012
                   8900 FT MSL...033/010
                   8100 FT MSL...027/012
                   8000 FT MSL...024/012
                   7300 FT MSL...003/011
                   7000 FT MSL...003/009
                   6600 FT MSL...357/008
                   6200 FT MSL...359/005
                   6000 FT MSL...353/005
                   5900 FT MSL...032/006

Denver/Boulder Aviation Discussion
Issued at 0349 UTC Saturday, February 23, 2019

.AVIATION...(For the 06Z TAFS through 06Z Saturday night)
Issued at 842 PM MST Fri Feb 22 2019
Heaviest snow has moved se of DIA but light to moderate snow will
continue for a few more hours with additional accumulations up to
2". Snow should begin to decrease by midnight.


* * * * * Southeast Colorado * * * * *

METAR K4BM 230535Z AUTO 02006KT 3/4SM SN OVC001 M10/M12 A2970 RMK AO2
       LTG DSNT N AND NW
METAR K4BM 230512Z AUTO 02005KT 3/4SM SN OVC001 M10/M11 A2969 RMK AO2
       LTG DSNT N AND NW
METAR K4BM 230454Z AUTO 01006G15KT 1/2SM +SN OVC001 M10/M11 A2969 RMK
       AO2 LTG DSNT NW

SPECI KAFF 230543Z AUTO 34014KT 1 1/8SM -SN BR FEW002 OVC008 M06/M07
        A2974 RMK AO2 SLP115
SPECI KAFF 230528Z AUTO 34014KT 1 1/8SM -SN BR BKN002 OVC008 M06/M07
       A2974 RMK AO2 BKN V OVC SLP115
SPECI KAFF 230523Z AUTO 34012KT 1SM -SN BR BKN002 OVC008 M06/M07 A2974
       RMK AO2 BKN V OVC SLP115 RVRNO $

KCOS 230520Z 2306/2406 34015KT 3SM -SN BR SCT010 OVC020
      TEMPO 2306/2310 1SM -SN BR OVC010
     FM231200 35028G38KT P6SM VCSH SCT020 OVC040
     FM231600 35020G30KT P6SM SCT040 BKN090
     FM232000 35012G22KT P6SM SKC
     FM240300 36008KT P6SM SKC
SPECI KCOS 230528Z 33013KT 1/2SM R17L/5000VP6000FT SN FZFG OVC022
       M04/M06 A2973 RMK AO2 TWR VIS 2 P0002 T10441061
METAR KCOS 230454Z 33014KT 1 1/4SM -SN BR OVC020 M04/M06 A2973 RMK AO2
       TWR VIS 2 SLP111 P0002 T10391061
SPECI KCOS 230443Z 33013KT 1 1/2SM -SN BR OVC018 M04/M06 A2973 RMK AO2
       TWR VIS 2 P0001 T10391061

METAR KABH 230456Z AUTO 03019G23KT -SN A2970 RMK AO2 SNB00 SLPNO P0000
       $
SPECI KABH 230444Z AUTO 04015G21KT SN BKN012 OVC016 A2970 RMK AO2 SNB00
       P0000 $
METAR KABH 230356Z AUTO 05014KT OVC007 A2970 RMK AO2 SLPNO $

METAR KFLY 230535Z AUTO 36017G24KT 1 1/2SM -SN OVC022 M06/M07 A2971 RMK
       AO2 T10581075
METAR KFLY 230515Z AUTO 01012G18KT 1 1/4SM -SN SCT014 OVC020 M06/M07
       A2973 RMK AO2 T10591071
METAR KFLY 230455Z AUTO 36014G20KT 1 1/4SM -SN OVC018 M06/M07 A2973 RMK
       AO2 T10571070

KFCS 230503Z 2305/2411 35015G25KT 6000 -SN BKN010 OVC020
      620109
      520009 QNH2963INS
      TEMPO 2308/2313 35025G35KT 560009
      BECMG 2312/2313 34015G25KT 9999 NSW SCT020 BKN080
      620806
      520009 QNH2968INS
      TEMPO 2313/2315 34025G35KT 560009
      BECMG 2315/2316 35012G18KT 9999 SCT080 QNH2976INS
      BECMG 2401/2402 30009KT 9999 SKC QNH2980INS TX07/2322Z
      TNM07/2312Z
SPECI KFCS 230528Z 01024G29KT 3SM -SN BR OVC021 M04/M05 A2970 RMK AO2A
        SLP115 $
METAR KFCS 230458Z 36019G28KT 2 3/4SM SN BR OVC021 M04/M05 A2971 RMK
       AO2A PK WND 35030/52 VIS 2 1/2V5 SLP118 P0000 T10371050 $
METAR KFCS 230358Z 02018G23KT 7SM -SN OVC016 M03/M05 A2971 RMK AO2A
       SLP118 P0000 T10301046 $

KPUB 230520Z 2306/2406 02015G25KT P6SM VCSH FEW010 OVC060
      TEMPO 2306/2307 5SM -SHRASN BR BKN030
     FM230700 01018G28KT 3SM -SN BR SCT015 OVC030
      TEMPO 2307/2311 1SM -SN BR BKN015
     FM231200 35030G40KT P6SM VCSH SCT020 BKN040
     FM231600 35020G30KT P6SM SCT050 BKN100
     FM232000 34012G22KT P6SM SKC
     FM240300 32010KT P6SM SKC
METAR KPUB 230453Z 02018G30KT 10SM FEW016 BKN060 OVC070 02/M02 A2969 RMK
       AO2 PK WND 02030/0450 SLP063 T00171017
METAR KPUB 230353Z 02018G23KT 8SM FEW075 SCT090 OVC110 03/M01 A2968 RMK
       AO2 SLP059 T00281006
METAR KPUB 230253Z 03009KT 9SM CLR 03/M01 A2969 RMK AO2 SLP061 T00281006
       53010


METAR KTAD 230454Z AUTO 18004KT 10SM FEW120 02/M02 A2965 RMK AO2 SLP029
       T00221017
METAR KTAD 230354Z AUTO 16010KT 10SM OVC080 03/M02 A2967 RMK AO2 SLP040
       T00331017
METAR KTAD 230254Z AUTO 18016G21KT 10SM OVC110 05/M02 A2968 RMK AO2 PK
       WND 19031/0228 SLP054 T00501017 53018

METAR KLHX 230453Z AUTO 12012KT 10SM CLR 03/01 A2969 RMK AO2 SLP052
       T00280006
METAR KLHX 230353Z AUTO 15012KT 10SM BKN090 05/01 A2969 RMK AO2 SLP055
       T00500006
METAR KLHX 230253Z AUTO 13014G22KT 10SM CLR 06/00 A2968 RMK AO2 SLP055
       T00560000 53012

METAR KLAA 230453Z AUTO 12006KT 10SM OVC006 03/02 A2971 RMK AO2 SLP058
       T00330017
SPECI KLAA 230444Z AUTO 12009G16KT 10SM OVC006 03/02 A2971 RMK AO2
       T00330017
METAR KLAA 230353Z AUTO 15014G24KT 10SM OVC008 03/02 A2971 RMK AO2 PK
       WND 15028/0255 SLP064 T00330017

METAR KSPD 230456Z AUTO 16016KT 01/01 A2970 RMK AO1 SLP059 T00060006
METAR KSPD 230356Z AUTO 15019G25KT 01/01 A2970 RMK AO1 SLP058
       T00110011
METAR KSPD 230256Z AUTO 13015KT 01/01 A2972 RMK AO1 SLP067 T00110011
       53001

Sunrise/Sunset for 02/22/2019
Burlington - 06:31:40 MST / 17:33:28 MST
Pueblo     - 06:39:53 MST / 17:44:02 MST
Lamar      - 06:31:41 MST / 17:36:13 MST

Pueblo (KPUX) 02/23/19 05:29 UTC
Radar VAD winds      Height      Dir/Spd(kt)
                  30000 FT MSL...203/067
                  29000 FT MSL...206/064
                  27000 FT MSL...201/063
                  25000 FT MSL...208/058
                  24000 FT MSL...206/053
                  23000 FT MSL...202/048
                  22000 FT MSL...200/045
                  21000 FT MSL...196/043
                  20000 FT MSL...198/044
                  19000 FT MSL...192/036
                  18000 FT MSL...192/037
                  17000 FT MSL...188/038
                  16000 FT MSL...184/036
                  15000 FT MSL...183/035
                  14000 FT MSL...187/036
                  13200 FT MSL...176/034
                  13000 FT MSL...184/035
                  12000 FT MSL...184/032
                  11600 FT MSL...184/033
                  11000 FT MSL...181/032
                  10000 FT MSL...196/024
                   9900 FT MSL...199/023
                   9000 FT MSL...194/022
                   8100 FT MSL...120/017
                   8000 FT MSL...161/014
                   7000 FT MSL...104/017
                   6400 FT MSL...041/021
                   6300 FT MSL...062/018
                   6000 FT MSL...040/023
                   5700 FT MSL...038/024

Pueblo Aviation Discussion
Issued at 0508 UTC Saturday, February 23, 2019

.AVIATION...(For the 06Z TAFS through 06Z Saturday night)
Issued at 1007 PM MST Fri Feb 22 2019
KALS:
Light snow showers are currently over KALS and will remain over and
around for a few hours. During this time MVFR and IFR conditions are
expected. In the morning hours, conditions will clear up, leaving
VFR conditions with gusty north to northwesterly winds.
KCOS:
Snowfall is currently falling over KCOS, expect that snowfall to
continue into the early morning hours. During this time period IFR
to LIFR conditions are possible. Conditions improve in the later
morning hours, remaining VFR throughout the rest of the forecast
period. Gusty northerly winds will form in the morning hours and
will last throughout the forecast period.
KPUB:
Some flurries have already been observed outside of the weather
office, but a mix of rain and snow is expected initially.
Precipitation will turn to all snow an hour or so later. IFR to LIFR
conditions are possible during the precipitation period. Conditions
improve to VFR during the morning hours and will remain that way
through the morning hours. Gusty northerly winds will form during
the morning hours and will remain throughout the day.


* * * * * Northwest Colorado * * * * *

METAR KCAG 230453Z AUTO 21006KT 10SM CLR M12/M15 A2989 RMK AO2 SLP191
       T11171150
METAR KCAG 230353Z AUTO 27004KT 10SM OVC100 M09/M13 A2988 RMK AO2 SLP181
       T10941128
METAR KCAG 230253Z AUTO 28004KT 10SM OVC095 M08/M12 A2987 RMK AO2 SLP177
       60000 T10831122 53013

METAR KHDN 230456Z AUTO 26005KT 10SM CLR M12/M14 A2988 RMK AO2 SLP177
       T11171144 FZRANO
METAR KHDN 230356Z AUTO 28006KT 10SM SCT110 M11/M13 A2987 RMK AO2 SLP170
       T11061133 FZRANO
METAR KHDN 230256Z AUTO 30005KT 10SM BKN070 M09/M12 A2985 RMK AO2 SNE48
       SLP164 P0000 60000 T10891117 53012 FZRANO

METAR KSBS 230536Z AUTO 00000KT 4SM SCT019 BKN029 OVC036 M10/M12 A2984
       RMK AO1 T11001120
METAR KSBS 230515Z AUTO 24003KT 4SM SCT022 OVC029 M10/M11 A2985 RMK AO1
       T11001113
METAR KSBS 230455Z AUTO 23004KT 1 3/4SM OVC029 M10/M11 A2984 RMK AO1
       T10971111 410501101

METAR KC07 230524Z AUTO 34009G16KT 3SM -SN OVC001 M15/M16 A2969 RMK
       AO2
METAR KC07 230506Z AUTO 30012G18KT 1 1/2SM -SN OVC001 M15/M16 A2969 RMK
       AO2
METAR KC07 230447Z AUTO 31010G15KT 4SM -SN SCT001 BKN100 BKN120 M15/M16
       A2969 RMK AO2

METAR K33V 230535Z AUTO 35013KT 10SM BKN022 BKN050 M12/M15 A2977 RMK
       AO1
METAR K33V 230515Z AUTO 35013KT 10SM SCT090 M12/M15 A2975 RMK AO1
METAR K33V 230455Z AUTO 36018KT 10SM OVC100 M11/M14 A2975 RMK AO1

METAR KEEO 230453Z AUTO 03006KT 10SM SCT080 BKN120 M09/M13 A2985 RMK AO2
       SLP153 T10891133
METAR KEEO 230353Z AUTO 00000KT 10SM OVC060 M07/M11 A2984 RMK AO2 SLP141
       T10671111
METAR KEEO 230253Z AUTO 22005KT 10SM OVC050 M07/M10 A2984 RMK AO2 SLP138
       60000 T10671100 53013

METAR K20V 230530Z AUTO 00000KT 10SM SCT044 BKN100 OVC120 M07/M09 A2976
       RMK AO2
METAR K20V 230512Z AUTO 00000KT 10SM SCT044 SCT120 M07/M08 A2978 RMK
       AO2
METAR K20V 230454Z AUTO 00000KT 10SM SCT034 SCT044 SCT060 M07/M08 A2977
       RMK AO2

METAR KGNB 230525Z AUTO 00000KT 10SM BKN085 OVC090 M08/M09 A2973 RMK AO2
       T10851095
METAR KGNB 230505Z AUTO 00000KT 3SM -SN SCT015 BKN040 OVC075 M08/M09
       A2974 RMK AO2 T10801090
METAR KGNB 230450Z AUTO 00000KT 1 1/4SM -SN BKN014 OVC020 M08/M09 A2971
       RMK AO2 T10771087

METAR K0CO 230542Z AUTO 34010KT 271V021 SCT003 BKN020 OVC032 M14/M20
       A2965 RMK AO2 PWINO
METAR K0CO 230524Z AUTO 31010KT 281V341 SCT010 SCT016 OVC033 M14/M20
       A2965 RMK AO2 PWINO
METAR K0CO 230506Z AUTO 31007KT BKN010 OVC018 M14/M20 A2965 RMK AO2
       PWINO

KGJT 230535Z 2306/2406 26006KT P6SM VCSH OVC050
      TEMPO 2306/2307 3SM -SN OVC030
     FM230700 34005KT P6SM SCT060 BKN070
     FM230800 VRB05KT P6SM FEW070 SCT090
     FM232100 VRB05KT P6SM FEW250
METAR KGJT 230453Z AUTO 26006KT 10SM OVC048 M02/M03 A2986 RMK AO2 SNE32
       SLP124 P0000 T10221033
SPECI KGJT 230423Z 27007KT 4SM -SN BR OVC030 M02/M03 A2985 RMK AO2 P0000
       T10221033
METAR KGJT 230353Z 28006KT 2SM -SN BR OVC019 M02/M04 A2984 RMK AO2
       SLP118 P0001 T10171039

KRIL 230535Z 2306/2406 29015KT P6SM BKN050 OVC070
     FM230800 30008KT P6SM SCT070 BKN080
     FM231700 VRB04KT P6SM FEW250
     FM232100 27007KT P6SM FEW050 SCT100
     FM240000 23005KT P6SM FEW050 SCT090
METAR KRIL 230453Z AUTO 29015KT 10SM OVC070 M03/M10 A2982 RMK AO2 SLP119
       T10331100
METAR KRIL 230353Z AUTO 29014KT 10SM OVC065 M02/M09 A2980 RMK AO2 SLP108
       T10221094
METAR KRIL 230253Z AUTO 31011KT 10SM BKN060 OVC075 M02/M08 A2980 RMK AO2
       SLP109 T10171083 53021

METAR K5SM 230530Z AUTO 32005KT 2SM -SN BKN007 OVC011 A2973 RMK AO2
METAR K5SM 230512Z AUTO 31005KT 1 1/4SM -SN SCT001 OVC005 A2973 RMK
       AO2
METAR K5SM 230453Z AUTO 32006KT 3/4SM SN OVC003 A2973 RMK AO2

KEGE 230535Z 2306/2406 VRB04KT P6SM VCSH BKN010 OVC040
      TEMPO 2306/2309 2SM -SN BKN010 OVC020
     FM230900 10005KT P6SM BKN025 OVC050
     FM231200 VRB04KT P6SM SCT050 BKN080
     FM231800 VRB03KT P6SM FEW250
     FM240000 25013KT P6SM SCT045 BKN060
SPECI KEGE 230536Z AUTO 00000KT 1 1/2SM -SN BR OVC018 M04/M06 A2980 RMK
       AO2 VIS 1 1/4V2 P0001 FZRANO
SPECI KEGE 230507Z AUTO 00000KT 2SM -SN BR FEW009 SCT014 OVC021 M05/M06
       A2979 RMK AO2 P0000 FZRANO
SPECI KEGE 230501Z AUTO 00000KT 3SM -SN BR FEW011 SCT014 OVC023 M05/M06
       A2979 RMK AO2 P0000 FZRANO

KASE 230535Z 2306/2406 36006KT 1SM -SN BR BKN010 OVC020
     FM230900 VRB04KT P6SM VCSH BKN010 OVC030
     FM231100 VRB04KT P6SM BKN015 OVC050
     FM231400 VRB03KT P6SM SCT020 BKN070
     FM231600 VRB04KT P6SM SCT070
SPECI KASE 230536Z AUTO 02007KT 1SM -SN BR VV009 M06/M08 A2972 RMK AO2
       P0001 T10611083
SPECI KASE 230520Z AUTO 36008KT 1SM -SN BR BKN011 OVC018 M06/M08 A2971
       RMK AO2 P0001 T10561078
SPECI KASE 230513Z AUTO 01006KT 1 1/4SM -SN BR BKN015 OVC022 M06/M08
       A2972 RMK AO2 P0001 T10561078

METAR KCCU 230536Z AUTO 00000KT 2 1/2SM -SN BKN007 OVC013 M10/M13 A2966
       RMK AO2
METAR KCCU 230512Z AUTO 00000KT 3SM -SN SCT009 BKN016 OVC046 M10/M13
       A2966 RMK AO2
METAR KCCU 230454Z AUTO 30003KT 10SM SCT016 BKN042 OVC060 M10/M13 A2967
       RMK AO2

METAR KLXV 230453Z AUTO 04003KT 10SM BKN048 OVC075 M10/M11 A2965 RMK AO2
       SLP041 T11001111
METAR KLXV 230353Z AUTO 05006KT 7SM OVC050 M09/M11 A2964 RMK AO2
       SNE10B31E51 SLP037 P0000 T10891111
SPECI KLXV 230309Z AUTO 06006KT 5SM -SN BR OVC036 M09/M11 A2966 RMK AO2
       P0000 T10891106

Sunrise/Sunset for 02/22/2019
Rangely           - 06:58:36 MST / 17:58:36 MST
Grand Junction    - 06:56:33 MST / 17:58:50 MST
Steamboat Springs - 06:51:13 MST / 17:50:19 MST

Grand Junction (KGJX) 02/23/19 05:30 UTC
Radar VAD winds      Height      Dir/Spd(kt)
                  26000 FT MSL...172/073
                  25000 FT MSL...182/065
                  24000 FT MSL...182/059
                  22000 FT MSL...185/036
                  20000 FT MSL...160/024
                  19000 FT MSL...190/012
                  18000 FT MSL...201/008
                  18000 FT MSL...201/009
                  17000 FT MSL...220/005
                  16300 FT MSL...240/004
                  16000 FT MSL...251/005
                  15000 FT MSL...264/004
                  14600 FT MSL...267/004
                  14000 FT MSL...294/004
                  13000 FT MSL...332/007
                  12900 FT MSL...337/008
                  12000 FT MSL...005/013
                  11100 FT MSL...358/014
                  11000 FT MSL...013/017
                  11000 FT MSL...013/017
                  10400 FT MSL...010/018

Grand Junction Aviation Discussion
Issued at 0024 UTC Saturday, February 23, 2019

.AVIATION...(For the 00Z TAFS through 00Z Saturday evening)
Issued at 524 PM MST Fri Feb 22 2019
IFR conditions will continue across a majority of TAF sites across
western Colorado as the storm system continues to move eastward,
with low VIS/CIGS in snow showers. The focus is shifting to the
northern and central areas as the flow shifts to northwest this
evening and overnight. Snow will come to an end at most areas
after midnight but looks to linger across the northwest San Juans
and central Colorado divide through Saturday morning. Mountains
will remain obscured across western Colorado through tonight with
low CIGS remaining into Saturday morning. VFR conditions and
clearing skies will make an appearance from the west to east
through Saturday morning and after 15Z Saturday with VFR across
all areas.


* * * * * Southwest Colorado * * * * *

METAR KAJZ 230535Z AUTO 03003KT 3SM -SN BKN006 OVC011 00/M01 A2979 RMK
       AO2 T10051011
METAR KAJZ 230515Z AUTO 00000KT 2 1/2SM -SN OVC006 M01/M01 A2978 RMK AO2
       T10071015
METAR KAJZ 230455Z AUTO 00000KT 1 1/2SM -SN BKN004 OVC009 M01/M01 A2978
       RMK AO2 P0001 T10061014

KMTJ 230535Z 2306/2406 31006KT 4SM -SN BR OVC015
     FM230900 32005KT P6SM VCSH BKN020 OVC040
     FM231100 VRB05KT P6SM SCT025 BKN050
     FM231300 VRB05KT P6SM SCT045 BKN070
     FM231500 VRB05KT P6SM SCT080 BKN100
SPECI KMTJ 230527Z AUTO 31006KT 4SM -SN BR OVC016 M04/M06 A2983 RMK AO2
       P0000 T10391061
METAR KMTJ 230453Z AUTO 29010KT 3SM -SN BR OVC012 M04/M06 A2982 RMK AO2
       SLP106 P0000 T10391061
SPECI KMTJ 230445Z AUTO 30010KT 2 1/2SM -SN BR OVC012 M04/M06 A2982 RMK
       AO2 P0000 T10391056

SPECI KGUC 230515Z AUTO 00000KT 10SM OVC006 M05/M06 A2970 RMK AO2
       FZRANO
METAR KGUC 230456Z AUTO 00000KT 10SM OVC004 M05/M06 A2970 RMK AO2 SNE05
       SLP082 P0000 T10501061 FZRANO
SPECI KGUC 230436Z AUTO 00000KT 9SM BKN004 OVC080 M05/M06 A2971 RMK AO2
       SNE05 P0000 FZRANO

METAR K7BM 230524Z AUTO 00000KT 10SM BKN050 OVC070 M06/M08 A2967 RMK
       AO2
METAR K7BM 230530Z AUTO 00000KT 10SM SCT050 OVC070 M06/M08 A2967 RMK
       AO2
METAR K7BM 230524Z AUTO 00000KT 10SM BKN050 OVC070 M06/M08 A2967 RMK
       AO2

METAR KAEJ 230535Z AUTO 00000KT 10SM SCT044 BKN070 OVC080 M04/M07 A2969
       RMK AO2 T10361075
METAR KAEJ 230515Z AUTO 36004KT 10SM BKN035 BKN044 OVC080 M04/M08 A2969
       RMK AO2 T10371081
METAR KAEJ 230455Z AUTO 00000KT 10SM BKN036 OVC042 M03/M07 A2970 RMK AO2
       T10301072

METAR KANK 230535Z AUTO 27004KT 5SM SCT039 OVC047 M03/M04 A2978 RMK AO1
       T10261040
METAR KANK 230515Z AUTO 00000KT 4SM BKN015 BKN023 OVC050 M02/M04 A2977
       RMK AO1 T10251040
METAR KANK 230455Z AUTO 00000KT 3SM BKN017 OVC022 M02/M04 A2978 RMK AO1
       T10251038

METAR KMYP 230532Z AUTO M11/M13 A2976 RMK AO2 PWINO
METAR KMYP 230513Z AUTO M11/M13 A2975 RMK AO2 PWINO
METAR KMYP 230449Z AUTO M11/M13 A2976 RMK AO2 PWINO

METAR KAIB 230535Z AUTO 32007KT 10SM OVC044 M03/M05 A2982 RMK AO2
METAR KAIB 230515Z AUTO 31010KT 10SM SCT013 BKN029 OVC044 M02/M05 A2982
       RMK AO2
METAR KAIB 230455Z AUTO 31010KT 10SM -SN BKN009 BKN012 OVC017 M03/M04
       A2982 RMK AO2

KTEX 230535Z 2306/2406 27011KT 1 1/2SM -SN OVC008
     FM231000 30008KT P6SM VCSH BKN015 OVC035
     FM231300 30006KT P6SM FEW050 SCT070
     FM231500 26006KT P6SM FEW080 SCT140
METAR KTEX 230535Z AUTO 29010KT 2SM -SN OVC010 M07/M08 A2969 RMK AO2
METAR KTEX 230515Z AUTO 27011KT 1 1/2SM -SN OVC008 M07/M08 A2971 RMK
       AO2
METAR KTEX 230455Z AUTO 27014KT 1 1/2SM -SN OVC010 M07/M08 A2971 RMK
       AO2

METAR K04V 230536Z AUTO 00000KT 10SM SCT060 OVC070 M03/M07 A2964 RMK
       AO2
METAR K04V 230518Z AUTO 00000KT 10SM OVC050 M03/M06 A2968 RMK AO2
METAR K04V 230454Z AUTO 00000KT 10SM OVC050 M03/M06 A2967 RMK AO2

SPECI KCEZ 230539Z AUTO 30011KT 1 3/4SM -SN SCT019 OVC025 M03/M06 A2976
       RMK AO2 P0000 T10331061
SPECI KCEZ 230530Z AUTO 30010G16KT 2SM -SN FEW013 BKN021 OVC025 M03/M07
       A2977 RMK AO2 P0000 T10331067
SPECI KCEZ 230504Z AUTO 28005KT 3SM -SN BR OVC018 M03/M06 A2976 RMK AO2
       P0000 T10331056

KDRO 230535Z 2306/2406 VRB05KT P6SM VCSH BKN010 OVC020
     FM230700 26007KT P6SM VCSH BKN025 OVC030
     FM230900 27011KT P6SM VCSH SCT035 BKN045
     FM231100 26011KT P6SM SCT070
     FM240000 VRB04KT P6SM SKC
SPECI KDRO 230539Z AUTO 23004KT 7SM -SN SCT009 BKN016 OVC024 M04/M04
       A2971 RMK AO2 SNB10E30B35 P0000 T10391039
SPECI KDRO 230531Z AUTO 23005KT 9SM BKN011 OVC019 M03/M04 A2970 RMK AO2
       SNB10E30 P0000 T10331039
SPECI KDRO 230509Z AUTO 26004KT 9SM BKN019 OVC034 M03/M04 A2969 RMK AO2
       T10331039

METAR KPSO 230535Z AUTO 19004KT 10SM SCT005 OVC085 M04/M04 A2968 RMK AO2
       T10421042
METAR KPSO 230515Z AUTO 00000KT 7SM -SN SCT014 SCT022 OVC075 M04/M04
       A2967 RMK AO2 T10431043
METAR KPSO 230455Z AUTO 03003KT 4SM -SN BKN016 OVC022 M04/M04 A2969 RMK
       AO2 T10391039

METAR KCPW 230530Z AUTO BKN001 BKN070 OVC120 M13/M14 A2968 RMK AO2
       PWINO
METAR KCPW 230506Z AUTO M13/M13 A2967 RMK AO2 PWINO
METAR KCPW 230447Z AUTO BKN002 OVC006 M13/M13 A2969 RMK AO2 PWINO

KALS 230520Z 2306/2406 34010KT 3SM -SN BR OVC070
      TEMPO 2306/2308 1SM -SN BR OVC025
     FM230800 35012KT P6SM VCSH SCT015 BKN030
     FM231400 33015G25KT P6SM SCT030 BKN090
     FM231600 33015G25KT P6SM SKC
     FM240200 29008KT P6SM SKC
SPECI KALS 230539Z AUTO 07006KT 8SM SCT027 BKN048 OVC090 M03/M04 A2968
       RMK AO2 SNE35 P0001 T10331039
SPECI KALS 230531Z AUTO 07006KT 4SM -SN BR BKN022 BKN046 OVC090 M03/M04
       A2967 RMK AO2 P0001 T10331039
SPECI KALS 230507Z AUTO 05008KT 2SM -SN BR OVC022 M03/M04 A2968 RMK AO2
       P0000 T10281039

Sunrise/Sunset for 02/22/2019
Vail    - 06:48:24 MST / 17:49:26 MST
Durango - 06:51:50 MST / 17:58:05 MST
Alamosa - 06:44:02 MST / 17:49:55 MST

Grand Junction (KGJX) 02/23/19 05:30 UTC
Radar VAD winds      Height      Dir/Spd(kt)
                  26000 FT MSL...172/073
                  25000 FT MSL...182/065
                  24000 FT MSL...182/059
                  22000 FT MSL...185/036
                  20000 FT MSL...160/024
                  19000 FT MSL...190/012
                  18000 FT MSL...201/008
                  18000 FT MSL...201/009
                  17000 FT MSL...220/005
                  16300 FT MSL...240/004
                  16000 FT MSL...251/005
                  15000 FT MSL...264/004
                  14600 FT MSL...267/004
                  14000 FT MSL...294/004
                  13000 FT MSL...332/007
                  12900 FT MSL...337/008
                  12000 FT MSL...005/013
                  11100 FT MSL...358/014
                  11000 FT MSL...013/017
                  11000 FT MSL...013/017
                  10400 FT MSL...010/018

Grand Junction Aviation Discussion
Issued at 0024 UTC Saturday, February 23, 2019

.AVIATION...(For the 00Z TAFS through 00Z Saturday evening)
Issued at 524 PM MST Fri Feb 22 2019
IFR conditions will continue across a majority of TAF sites across
western Colorado as the storm system continues to move eastward,
with low VIS/CIGS in snow showers. The focus is shifting to the
northern and central areas as the flow shifts to northwest this
evening and overnight. Snow will come to an end at most areas
after midnight but looks to linger across the northwest San Juans
and central Colorado divide through Saturday morning. Mountains
will remain obscured across western Colorado through tonight with
low CIGS remaining into Saturday morning. VFR conditions and
clearing skies will make an appearance from the west to east
through Saturday morning and after 15Z Saturday with VFR across
all areas.


* * * * * Arizona * * * * *

KPGA 230531Z 2306/2406 29008KT P6SM SKC
     FM231100 VRB03KT P6SM SCT250
METAR KPGA 230453Z AUTO 29009KT 10SM CLR M01/M09 A2993 RMK AO2 SLP146
       T10061094 TSNO
METAR KPGA 230353Z AUTO 29007KT 10SM CLR 00/M08 A2990 RMK AO2 SLP135
       T00001083 TSNO

SPECI KRQE 230535Z AUTO 18003KT 5SM -SN BR FEW019 OVC024 M07/M08 A2979
       RMK AO2 SNB09 P0000 T10671078
SPECI KRQE 230515Z AUTO 23006KT 2 1/2SM -SN BR BKN028 BKN110 M06/M08
       A2979 RMK AO2 SNB09 P0000 T10561078
METAR KRQE 230453Z AUTO 21005KT 10SM SCT018 BKN090 OVC120 M06/M08 A2979
       RMK AO2 SNE02 SLP084 P0000 T10611083

Flagstaff (KFSX) 02/23/19 05:40 UTC
Radar VAD winds      Height      Dir/Spd(kt)
                   9000 FT MSL...283/016
                   8100 FT MSL...274/015
                   7800 FT MSL...269/019

Flagstaff Aviation Discussion
Issued at 0434 UTC Saturday, February 23, 2019

.AVIATION...For the 06Z Package...A few areas of poor aviation
conditions with MVFR/IFR/LIFR conditions continue until 12Z in
Navajo and Apache Counties as the storm system moves east. Patchy
fog may develop before 15Z. Otherwise, expect VFR conditions with
light winds through the next 24 hours. Aviation discussion not
updated for TAF amendments.


* * * * * Utah * * * * *

KSLC 230537Z 2306/2412 15005KT P6SM FEW180
     FM231900 17010G18KT P6SM SCT080 BKN100
     FM240200 16009KT P6SM BKN080
METAR KSLC 230454Z 00000KT 10SM FEW180 M04/M09 A3008 RMK AO2 SLP206
       T10441089
METAR KSLC 230354Z 01005KT 10SM FEW050 SCT180 M04/M08 A3006 RMK AO2
       SLP205 T10441083
METAR KSLC 230254Z 33006KT 10SM FEW055 SCT200 M03/M09 A3004 RMK AO2
       SLP198 T10281094 53022

KVEL 230535Z 2306/2406 VRB03KT P6SM FEW035 FEW090
     FM231900 VRB03KT P6SM FEW200
     FM232100 VRB03KT P6SM SCT045 BKN110
METAR KVEL 230453Z AUTO 00000KT 10SM FEW037 M13/M16 A2994 RMK AO2 SLP195
       T11281161
METAR KVEL 230353Z AUTO 00000KT 10SM BKN036 M13/M15 A2992 RMK AO2 SLP186
       T11281150
METAR KVEL 230253Z AUTO 00000KT 10SM SCT039 M11/M14 A2990 RMK AO2 SLP175
       T11061144 51022

METAR KPUC 230453Z AUTO 31017G22KT 10SM CLR M06/M13 A2988 RMK AO2 SLP166
       T10611133
METAR KPUC 230353Z AUTO 31014G19KT 10SM CLR M07/M13 A2986 RMK AO2 SLP163
       T10671128

KCNY 230535Z 2306/2406 VRB05KT P6SM FEW150
      TEMPO 2306/2309 4SM BR
     FM230900 29005KT P6SM FEW200
     FM231300 VRB04KT P6SM SKC
METAR KCNY 230453Z AUTO 25004KT 4SM BR CLR M06/M07 A2988 RMK AO2 SLP152
        I1000 T10611067
SPECI KCNY 230450Z AUTO 26005KT 2SM BR CLR M07/M08 A2988 RMK AO2
       I1000
METAR KCNY 230353Z AUTO 00000KT 10SM FEW037 SCT110 M04/M04 A2985 RMK AO2
       SLP140 T10391039


Salt Lake City (KMTX) 02/23/19 05:36 UTC
Radar VAD winds      Height      Dir/Spd(kt)
                   9100 FT MSL...065/004
                   9000 FT MSL...049/002
                   8300 FT MSL...014/002
                   7600 FT MSL...060/004

Salt Lake City Aviation Discussion
Issued at 0442 UTC Saturday, February 23, 2019

.AVIATION...Stable high pressure and a drier air mass will move
across northern Utah tonight through Saturday. VFR conditions will
prevail with generally light winds through the current TAF period.


* * * * * Wyoming * * * * *

KEVW 230537Z 2306/2406 24008KT P6SM SKC
     FM231700 22016G26KT P6SM BKN070
     FM240200 22016KT P6SM BKN060=
METAR KEVW 230453Z AUTO 23008KT 10SM CLR M16/M20 A2992 RMK AO2 SLP221
       T11561200
METAR KEVW 230353Z AUTO 23009KT 10SM CLR M16/M21 A2991 RMK AO2 SLP219
       T11561206
METAR KEVW 230253Z AUTO 25011KT 10SM CLR M14/M19 A2989 RMK AO2 SLP207
       T11441194 53013

KRKS 230524Z 2306/2406 26015KT P6SM FEW100 SCT200
     FM231700 25018G26KT P6SM SCT100 SCT200
     FM240100 25013KT P6SM SCT100 BKN150
METAR KRKS 230454Z AUTO 24013KT 10SM CLR M13/M18 A2988 RMK AO2 SLP207
       T11331178
METAR KRKS 230354Z AUTO 24018KT 10SM CLR M12/M17 A2986 RMK AO2 SLP205
       T11221172
METAR KRKS 230254Z AUTO 24018KT 10SM CLR M12/M16 A2985 RMK AO2 SLP197
       T11171161 53014

KRWL 230525Z 2306/2406 28008KT P6SM SCT200
     FM231500 25020G30KT P6SM SCT070 SCT250
     FM231800 25022G35KT P6SM BKN070
METAR KRWL 230453Z AUTO 25009G14KT 10SM CLR M12/M16 A2984 RMK AO2 SLP171
       T11221156
METAR KRWL 230353Z AUTO 24006KT 10SM CLR M12/M15 A2982 RMK AO2 SLP167
       T11221150
METAR KRWL 230253Z AUTO 26008KT 10SM CLR M12/M14 A2982 RMK AO2 SLP165
       T11171144 53010

KLAR 230525Z 2306/2406 36008KT P6SM BKN015
     FM230900 26010KT P6SM SCT100
     FM231700 27025G35KT P6SM SCT150
SPECI KLAR 230506Z AUTO 03007KT 10SM OVC014 M11/M13 A2978 RMK AO2
       T11061133
METAR KLAR 230453Z AUTO 03008KT 10SM OVC015 M11/M13 A2977 RMK AO2 SLP127
       T11061133
SPECI KLAR 230409Z AUTO 03008KT 10SM BKN017 OVC070 M11/M13 A2976 RMK AO2
       T11061128

KCYS 230525Z 2306/2406 32008KT 6SM BR VCSH SCT010 OVC040
     FM231200 30015KT P6SM SCT060 BKN120
     FM231600 30026G38KT P6SM SCT100
METAR KCYS 230453Z 10SM OVC065 M07/M09 A2977 RMK AO2 SLP142
       T10671089
METAR KCYS 230353Z 36006KT 7SM OVC055 M07/M07 A2976 RMK AO2 SLP141
       T10671072
METAR KCYS 230253Z 31005KT 7SM BKN055 OVC110 M07/M08 A2977 RMK AO2
       SLP142 T10671083 50008

Riverton (KRIW) 02/23/19 05:39 UTC
Radar VAD winds      Height      Dir/Spd(kt)
                  26000 FT MSL...202/001
                  14000 FT MSL...146/001
                  11000 FT MSL...343/001
                  10000 FT MSL...288/004
                   8100 FT MSL...203/001
                   8000 FT MSL...306/018
                   7000 FT MSL...278/015
                   6200 FT MSL...278/007

Cheyenne (KCYS) 02/23/19 05:35 UTC
Radar VAD winds      Height      Dir/Spd(kt)
                  30000 FT MSL...205/055
                  29000 FT MSL...210/050
                  28000 FT MSL...213/052
                  27000 FT MSL...210/050
                  26000 FT MSL...209/051
                  25000 FT MSL...209/053
                  24000 FT MSL...215/055
                  23000 FT MSL...216/054
                  22000 FT MSL...215/051
                  21000 FT MSL...214/048
                  20000 FT MSL...209/042
                  19000 FT MSL...205/036
                  18000 FT MSL...211/031
                  17000 FT MSL...230/032
                  16000 FT MSL...238/026
                  15000 FT MSL...259/025
                  14100 FT MSL...296/015
                  14000 FT MSL...298/015
                  13000 FT MSL...307/011
                  12400 FT MSL...299/007
                  12000 FT MSL...319/008
                  11000 FT MSL...330/005
                  10700 FT MSL...337/005
                  10000 FT MSL...330/006
                   9000 FT MSL...322/010
                   8900 FT MSL...315/016
                   7100 FT MSL...303/008

Riverton Aviation Discussion
Issued at 0530 UTC Saturday, February 23, 2019

.AVIATION...06Z Issuance
West of the Divide...KBPI/KJAC/KPNA/KRKS Routes
Clouds will gradually increase and lower across the far west during
the day Saturday as fetch of moisture riding a 110kt jet reaches the
region. Expect MVFR and eventually IFR conditions to develop at KJAC
between 18Z-22Z/Saturday as the moisture deepens. Other terminals
will remain VFR through the forecast period with VCSH developing
around KPNA and KBPI late Saturday afternoon and evening. Mountain
top obscurations will become widespread by late Saturday afternoon.
Westerly surface wind will increase at KRKS and gust 25-30kts
Saturday afternoon before decreasing around sunset. Southerly wind
should increase after sunset at KJAC as winter storm gets underway.
East of the Divide...KCOD/KCPR/KLND/KRIW/KWRL Routes
VFR conditions to prevail at all terminals through 06Z/Sun with the
exception of KCOD. Spillover moisture enhanced by jet dynamics and a
weak cold front could lead to a brief period of MVFR conditions in
light snow at KCOD near the end of the forecast period. Mountain top
obscurations will become widespread along the Continental Divide and
far northern Wyoming by early Saturday evening. Diurnally driven
southwest surface wind will gust around 25kts for most of the
daylight hours at KCPR.
Please see the Aviation Weather Center and/or CWSU ZDV and ZLC for
the latest information on icing and turbulence forecasts.

Cheyenne Aviation Discussion
Issued at 0545 UTC Saturday, February 23, 2019

.AVIATION...(For the 06Z TAFS through Saturday evening)
Issued at 440 PM MST Fri Feb 22 2019
A band of moderate snow will mainly impact KSNY tonight, with
occasional light snow possible at KAIA and KBFF. LIFR conditions
will persist at KSNY through 09z before conditions begin to improve
towards sunrise. After 15z, VFR conditions are expected across all
terminals with windy conditions quickly developing. Gusts up to 40
knots are possible from KRWL to KCYS.


* * * * * Nebraska * * * * *

METAR KIBM 230535Z AUTO 00000KT 5SM BR BKN002 BKN060 OVC100 M06/M06
       A2984 RMK AO2 T10581063
METAR KIBM 230515Z AUTO 00000KT 5SM BR SCT002 OVC100 M06/M06 A2984 RMK
       AO2 T10571063
METAR KIBM 230455Z AUTO 00000KT 5SM BR BKN002 BKN039 OVC070 M05/M06
       A2982 RMK AO2 T10551060

KSNY 230525Z 2306/2406 02008KT 1SM -SN BR OVC008
      TEMPO 2306/2308 1/2SM SN FZFG OVC005
     FM230900 34015KT 2SM -SN BR SCT020 BKN030
     FM231500 33020G30KT 3SM BLSN SCT080
     FM232300 33015KT P6SM SCT080
SPECI KSNY 230533Z AUTO 01004KT 3/4SM -SN BR VV011 M05/M06 A2985 RMK AO2
       P0001 T10501061
SPECI KSNY 230524Z AUTO 02004KT 1SM -SN BR VV012 M05/M06 A2986 RMK AO2
       P0000 T10501061
SPECI KSNY 230516Z AUTO 04004KT 3/4SM -SN BR VV014 M05/M06 A2986 RMK AO2
       P0000 T10501061

METAR KOGA 230535Z AUTO 00000KT 3SM BR OVC002 M02/M02 A2988 RMK AO2
       T10231025
METAR KOGA 230515Z AUTO 00000KT 2SM BR OVC002 M02/M02 A2988 RMK AO2
       T10231025
METAR KOGA 230455Z AUTO 08003KT 3SM BR OVC002 M02/M02 A2988 RMK AO2
       T10231025

METAR KIML 230453Z AUTO 10007KT 7SM OVC003 M02/M03 A2988 RMK AO2 SLP148
       T10171028
METAR KIML 230353Z AUTO 10008KT 10SM OVC003 M02/M03 A2987 RMK AO2 SLP148
       I1001 T10171033
METAR KIML 230253Z AUTO 10007KT 5SM BR OVC003 M02/M03 A2988 RMK AO2
       SLP149 I1001 I3008 T10171033 51016

KMCK 230520Z 2306/2406 09007KT 1 1/2SM BR OVC003
      TEMPO 2306/2308 1/4SM -FZDZ FG OVC002
     FM230800 03012KT 1/4SM SHSN FZFG OVC002
     FM231400 01012G22KT 1/4SM SHSN FZFG BLSN OVC002
     FM231800 34030G40KT 1/2SM SHSN FZFG BLSN OVC003
     FM232300 33025G35KT 3SM -SHSN BKN015 BKN050
SPECI KMCK 230537Z AUTO 07003KT 2SM BR OVC002 M01/M01 A2989 RMK AO2
       T10061006
SPECI KMCK 230524Z AUTO 08005KT 1 3/4SM BR OVC002 M01/M01 A2989 RMK AO2
       T10061011
METAR KMCK 230453Z AUTO 06004KT 2SM BR OVC002 M01/M01 A2991 RMK AO2
       SLP152 I1001 T10061011

North Platte (KLNX) 02/23/19 05:38 UTC
Radar VAD winds      Height      Dir/Spd(kt)
                   3700 FT MSL...151/006
                   3400 FT MSL...131/005

North Platte Aviation Discussion
Issued at 0541 UTC Saturday, February 23, 2019

.AVIATION...(For the 06Z TAFS through 06Z Saturday night)
Issued at 1140 PM CST Fri Feb 22 2019
For the KLBF terminal: Expect visibilities of 2 miles and ceilings
below 500 FT AGL overnight with fog and light snow developing
after 10z. Light snow will persist through late morning with
visibilities down to 1SM. Ceilings will increase to 4000 FT AGL by
afternoon with clearing skies by Saturday evening. Winds will
increase Saturday afternoon and may gust up to 35 KTS in the
afternoon. For the KVTN terminal: Visibilities will range from 800
to 2500 FT AGL through mid morning Saturday. Ceilings will then
increase to 3500 FT AGL during the afternoon hours with broken
ceilings around 15000 FT AGL after 21z.


* * * * * Kansas * * * * *

KGLD 230520Z 2306/2406 11009KT 1 1/2SM BR OVC002
      TEMPO 2306/2308 1/2SM -FZDZ FZFG
     FM230800 06009KT 1/4SM SHSN FG OVC003
     FM231300 01016G24KT 1/4SM +SHSN FZFG BLSN OVC003
     FM231700 35032G42KT 1/4SM +SHSN FZFG BLSN OVC003
     FM232300 34028G38KT 3SM -SHSN BLSN BKN025 BKN060
SPECI KGLD 230539Z AUTO 08010KT 2 1/2SM BR OVC003 M01/M01 A2980 RMK AO2
       UPB0454E02 P0001 T10061006 FZRANO $
SPECI KGLD 230510Z AUTO 08008KT 1SM BR VV003 M01/M01 A2981 RMK AO2
       UPB0454E02 P0001 T10061006 FZRANO $
METAR KGLD 230453Z AUTO 08008KT 3/4SM BR VV003 00/00 A2982 RMK AO2
       SLP114 T00000000 FZRANO $

KGCK 230520Z 2306/2406 14010KT 1/4SM FG OVC002
     FM230700 12010KT 1/2SM -RA OVC003
     FM230900 10010KT 1/2SM -RASN OVC003
     FM231200 07015KT 1/2SM SN OVC003
     FM231500 36025G35KT 1/4SM SN BLSN OVC003
     FM231800 34030G40KT 1/4SM SN BLSN OVC002
     FM232100 33035G45KT 1/2SM BLSN BKN015
     FM240000 33025G35KT P6SM SCT050
     FM240300 31015KT P6SM SKC
METAR KGCK 230454Z AUTO 13010KT 1/4SM FG VV002 02/02 A2980 RMK AO2
       SLP102 T00170017
METAR KGCK 230354Z AUTO 15009KT 1/4SM FG VV002 02/02 A2981 RMK AO2
       SLP110 T00170017
METAR KGCK 230254Z 15011KT 1/4SM FG VV002 02/02 A2982 RMK AO2 SLP110
       T00170017 58002

METAR KLBL 230456Z AUTO 15015KT 10SM OVC008 04/03 A2978 RMK AO2 SLP094
       T00440028
METAR KLBL 230356Z AUTO 15016KT 10SM OVC008 04/03 A2980 RMK AO2 SLP101
       T00390028
METAR KLBL 230256Z AUTO 15011G18KT 10SM OVC008 04/03 A2983 RMK AO2 CIG
       006V010 SLP111 T00440033 58001

METAR KEHA 230535Z AUTO 15019KT 10SM OVC004 04/04 A2972 RMK AO2
       T00410039
METAR KEHA 230515Z AUTO 15018KT 10SM OVC006 05/04 A2971 RMK AO2
       T00450040
METAR KEHA 230455Z AUTO 15019KT 10SM OVC006 05/04 A2973 RMK AO2
       T00480041

Goodland (KGLD) 02/23/19 05:36 UTC
Radar VAD winds      Height      Dir/Spd(kt)
                  14000 FT MSL...224/042
                  13000 FT MSL...224/037
                  12000 FT MSL...204/033
                  11000 FT MSL...199/035
                   8000 FT MSL...199/023
                   7000 FT MSL...190/017
                   6500 FT MSL...183/015
                   6000 FT MSL...187/014
                   5000 FT MSL...139/011
                   4700 FT MSL...129/012
                   4600 FT MSL...114/011
                   4000 FT MSL...088/013
                   4000 FT MSL...085/013

Dodge City (KDDC) 02/23/19 05:31 UTC
Radar VAD winds      Height      Dir/Spd(kt)
                  10000 FT MSL...165/005
                   9600 FT MSL...325/001
                   7000 FT MSL...001/011
                   6900 FT MSL...001/011
                   5100 FT MSL...191/010
                   5000 FT MSL...165/024

Goodland Aviation Discussion
Issued at 0541 UTC Saturday, February 23, 2019

.AVIATION...(For the 06Z TAFS through 06Z Sunday night)
Issued at 1041 PM MST Fri Feb 22 2019
A winter storm will keep mainly IFR conditions or lower thru much
of the forecast period. Both terminals will see ceilings mainly
OVC002-003 thru about 23z Saturday before going a MVFR/VFR mix.
Freezing drizzle and fog will transition to snow/blowing snow by
13z Saturday. Visibility will range from 1/4sm to almost 2sm. By
23z...3sm -sn snow/blowing snow.
Winds...for KGLD...ENE around 10kts thru 13z Saturday...then N
15-25kts increasing to 25-45kts by 17z. For KMCK...ENE around
10-15kts thru 14z...then NNW 15-25kts with gusts 30-40kts from
18z onward.

Dodge City Aviation Discussion
Issued at 0515 UTC Saturday, February 23, 2019

.AVIATION...(For the 06Z TAFS through 06Z Saturday night)
Issued at 1057 PM CST Fri Feb 22 2019
VLIFR conditions throughout the entire CWA under dense fog and low
stratus down to a quarter mile and ceilings around 300-800 feet.
Visibility will improve slightly as rain develops at the beginning
of the period before transitioning to rain and snow mix after 09Z
and straight snow after 12Z as a warm front lifts ahead of a cold
front that will push through by 15Z. Winds will pick up behind it
up to 35kts initially before steadily increasing to 45kts by 21Z
with heavy and blowing snow expected during this time.
Visibilities will be down to a quarter mile and ceilings down to
200-300 feet. Winds will start to diminish after 00Z but still
will flowing snow still on the ground. Ceilings will scatter out
after this point as high pressure builds in from the Rockies
clearing out after 03Z towards the end of the period and northwest
winds diminishing to around 15kts holding steady into the next
period. Amendments will be needed with the ongoing weather and
varying visibility and ceilings as models hint at different
categories occurring throughout the storm system pushing through.


* * * * * Texas/Oklahoma * * * * *

KGUY 230520Z 2306/2406 14018KT P6SM BKN010
      TEMPO 2307/2310 2SM -RA BR OVC009
     FM231100 14015G24KT 1 1/2SM -RASN BLSN OVC008
     FM231500 28022G32KT 2SM -RASN BLSN OVC008
     FM231800 33038G56KT P6SM BKN015=
METAR KGUY 230453Z AUTO 15011G22KT 10SM OVC008 04/02 A2974 RMK AO2
       SLP071 T00440017
SPECI KGUY 230425Z AUTO 14011G20KT 10SM OVC008 05/02 A2976 RMK AO2
       T00500017
METAR KGUY 230353Z AUTO 16013KT 10SM OVC010 05/02 A2976 RMK AO2 SLP076
       T00500017

KDHT 230520Z 2306/2406 14018KT 4SM BR VCSH BKN004
      TEMPO 2306/2309 2SM SHRA OVC009
     FM231000 19014G23KT 1 1/2SM BR OVC025
     FM231500 30031G43KT P6SM SCT010 BKN020 PROB30 2315/2318 4SM
      -RASN BKN010 OVC015
SPECI KDHT 230512Z AUTO 16018KT 3/4SM BR VV002 03/02 A2972 RMK AO2
       T00280017
METAR KDHT 230453Z AUTO 14019KT 1 3/4SM BR OVC002 03/02 A2973 RMK AO2
       SLP066 T00280017
SPECI KDHT 230443Z AUTO 14013KT 2SM BR OVC002 03/02 A2972 RMK AO2
       T00280017

Amarillo (KAMA) 02/23/19 05:41 UTC
Radar VAD winds      Height      Dir/Spd(kt)
                  36700 FT MSL...008/004
                  32100 FT MSL...009/004
                  30000 FT MSL...194/048
                  28000 FT MSL...202/046
                  27700 FT MSL...206/042
                  26000 FT MSL...212/045
                  25000 FT MSL...209/049
                  24300 FT MSL...211/049
                  24000 FT MSL...208/052
                  22000 FT MSL...209/056
                  20000 FT MSL...206/060
                  19000 FT MSL...205/059
                  18000 FT MSL...205/058
                  17000 FT MSL...205/056
                  16000 FT MSL...202/054
                  15000 FT MSL...200/051
                  14900 FT MSL...199/051
                  14000 FT MSL...198/050
                  13000 FT MSL...193/048
                  12600 FT MSL...192/044
                  12000 FT MSL...191/044
                  11000 FT MSL...192/042
                  10700 FT MSL...187/043
                  10000 FT MSL...175/051
                   9200 FT MSL...174/051
                   9000 FT MSL...195/037
                   8000 FT MSL...188/038
                   8000 FT MSL...184/036
                   7000 FT MSL...176/041
                   7000 FT MSL...176/041
                   6200 FT MSL...184/031
                   6000 FT MSL...173/037
                   5400 FT MSL...206/018
                   5000 FT MSL...152/020
                   4700 FT MSL...171/017

Amarillo Aviation Discussion
Issued at 0433 UTC Saturday, February 23, 2019

.AVIATION...
Lots of low level moisture available leaving the terminals and
much of the area in LIFR and IFR conditions for CIGs as well as
VIS. The first half of this period has a very messy forecast in
store with the threat of fog, rain, and snow. Winds will be out
of the southeast in the beginning backing to the west and picking
up in strength by Saturday morning as a low pressure system enters
the area. KGUY and KDHT looking at the possibility of snow here
in the next couple of hours while KAMA may see some flurries.
Between 15Z and 18Z Saturday precipitation chances will begin to
exit the Panhandles to the northwest leaving the terminals in MVFR
to VFR conditions, and winds gusting 40 to 50 kts. KGUY will be
the last terminal to see precipitation leave the area. Thunder
cannot be ruled out entirely between 06Z and 12Z especially for
KAMA but confidence is low.
Hoffeditz


* * * * * New Mexico * * * * *

KFMN 230543Z 2306/2406 32010KT 3SM BR VCSH OVC025
      TEMPO 2306/2308 1/2SM -SN FZFG OVC008
     FM230900 24014KT P6SM SCT035 BKN080
     FM231300 29016G25KT P6SM SKC
     FM240000 32011KT P6SM SKC
SPECI KFMN 230531Z AUTO 27006KT 2SM -SN BR FEW004 OVC022 M02/M02 A2974
       RMK AO2 P0001 T10221022
SPECI KFMN 230515Z AUTO 28004KT 1 3/4SM -SN BR FEW005 OVC016 M02/M03
       A2973 RMK AO2 P0000 T10171028
SPECI KFMN 230512Z AUTO 26007KT 2SM -SN BR FEW005 OVC014 M02/M02 A2974
       RMK AO2 P0000 T10171022

SPECI KSKX 230542Z AUTO 08003KT 3SM -SN BR SCT024 OVC031 M03/M04 A2970
       RMK AO2 PRESFR P0000 FZRANO $
SPECI KSKX 230519Z AUTO 16005KT 3SM -SN BR BKN017 OVC022 M03/M04 A2973
       RMK AO2 P0000 FZRANO $
SPECI KSKX 230512Z AUTO 16004KT 1 3/4SM -SN BR OVC017 M03/M04 A2974 RMK
       AO2 P0000 FZRANO $

KLVS 230543Z 2306/2406 27013KT P6SM VCSH OVC040
     FM231000 28018G27KT P6SM BKN080
     FM231500 31020G30KT P6SM SKC
     FM232000 32015G21KT P6SM SKC
     FM240100 34008KT P6SM SKC
SPECI KLVS 230509Z AUTO 27011KT 10SM OVC039 M01/M03 A2967 RMK AO2 PK WND
       26027/0454 UPB00E03SNE00 P0000 T10061028
METAR KLVS 230453Z AUTO 25026G32KT 4SM -SN OVC015 M01/M03 A2967 RMK AO2
       PK WND 25032/0452 SLP018 P0000 T10061033
SPECI KLVS 230449Z AUTO 23023G29KT 2SM -SN BR OVC013 M01/M02 A2967 RMK
       AO2 PK WND 23029/0449 VIS 1 1/4V4 P0000

SPECI KRTN 230543Z AUTO 21008KT 2SM -SN BR BKN003 OVC010 01/M01 A2962
       RMK AO2 PK WND 15028/0455 P0004 T00061006
SPECI KRTN 230528Z AUTO 21009KT 1 1/4SM -SN BR BKN005 OVC009 01/M01
       A2963 RMK AO2 PK WND 15028/0455 P0003 T00061006
SPECI KRTN 230505Z AUTO 20013G26KT 1 1/4SM -SN FEW007 BKN012 OVC031
       01/M02 A2965 RMK AO2 PK WND 15028/0455 P0001 T00111017

METAR KCAO 230455Z AUTO 18012KT 1/4SM FG VV002 02/02 A2970 RMK AO2
       SLP059 T00170017
SPECI KCAO 230452Z AUTO 18010KT 1/4SM FG VV002 02/02 A2970 RMK AO2
SPECI KCAO 230430Z AUTO 18012KT 3/4SM BR OVC002 02/01 A2970 RMK AO2
       T00170011

Albuquerque (KABX) 02/23/19 05:37 UTC
Radar VAD winds      Height      Dir/Spd(kt)
                  19000 FT MSL...187/060
                  18000 FT MSL...168/043
                  17000 FT MSL...234/016
                  16000 FT MSL...245/023
                  15000 FT MSL...290/014
                  14000 FT MSL...270/014
                  13000 FT MSL...282/014
                  13000 FT MSL...283/014
                  12000 FT MSL...285/018
                  11500 FT MSL...286/018
                  11000 FT MSL...282/022
                  10300 FT MSL...288/021
                  10000 FT MSL...285/024
                   9200 FT MSL...295/020
                   9000 FT MSL...284/022
                   8400 FT MSL...288/019
                   8000 FT MSL...287/019
                   7700 FT MSL...286/018
                   7000 FT MSL...272/018
                   7000 FT MSL...280/018
                   6500 FT MSL...274/016
                   6300 FT MSL...276/014

Albuquerque Aviation Discussion
Issued at 0223 UTC Saturday, February 23, 2019

.AVIATION...
00Z TAF CYCLE
Cold front has pushed through the RGV with a notable wind shift in
its wake. Band of snow, possibly mixing with rain initially, should
continue to proceed eastward into northeast-east central NM. Expect
IFR/MVFR ceilings and visibility within this band of snow. Current
TAFs reflect this progression. A secondary band of snow is likely to
occur approximately 3 to 5 hrs behind the initial band. Thereafter,
expect gradual clearing and gusty winds in its wake. Winds should be
too strong to support radiational fog tonight. Very strong winds are
forecast across east-central / southeast NM late tonight through Sat
afternoon.

* * * * * Winds and Temperatures Aloft Forecasts * * * * *

DATA BASED ON 230000Z
VALID 230600Z   FOR USE 0500-0900Z. TEMPS NEG ABV 24000
FT  3000    6000   9000    12000   18000   24000  30000  34000  39000
SLC      9900    3213-15 3218-19 3327-27 3334-39 323054 314156 283653
BCE                      3522-15 3537-26 3442-38 333951 324853 294949
LND              3009-11 2810-18 3017-29 3216-39 291454 282358 263353
RKS              3022    2918-18 2714-30 3420-39 321653 302056 263152
GJT              3615-10 3413-15 2009-28 2032-40 250851 281652 263049
FMN              2926-09 3014-14 1006-28 1748-39 202647 252547 263646
ABQ              2930-09 2717-15 2512-30 1753-38 223943 244243 245145
MBW              2919    2817-16 2247-25 2153-40 226355 233656 243752
DEN              0114-09 3408-13 2028-23 2145-38 208255 225454 224952
PUB              1818-04 1924-10 1945-23 2046-36 214954 216153 225851
ALS                      3105-11 2127-25 1848-36 186452 214950 234649
TCC      1847    2048-02 2142-07 2050-22 1953-36 207148 228747 237847
BFF      3309    3210-09 2712-12 2126-25 2153-38 226956 235256 235654
GLD      1820    2129-02 2130-09 2232-22 2345-37 216452 217856 228153
GCK      1619+07 2126+00 2128-06 2344-21 2262-35 208050 219055 229553
GAG      1817+10 2130+03 2229-05 2143-20 2267-32 218748 229553 720053
AMA      1740    1848+02 1954-05 2060-21 2156-34 228549 720350 238948
---------------------------------------------------------------------

DATA BASED ON 230000Z
VALID 231200Z   FOR USE 0900-1800Z. TEMPS NEG ABV 24000
FT  3000    6000   9000    12000   18000   24000  30000  34000  39000
SLC      9900    2814-14 3122-17 3044-27 3051-39 317553 316857 294855
BCE                      3327-12 3248-24 3358-37 326751 327656 305755
LND              3010-12 3018-17 2826-28 2825-40 263155 273357 274653
RKS              2931    2924-17 2924-27 3027-40 283354 283356 274553
GJT              3613-13 3217-17 3429-26 3336-38 313451 303255 294449
FMN              3234-09 3138-15 3121-27 3343-37 324649 294250 284246
ABQ              3150-08 3144-13 3131-28 3155-36 295645 276646 275545
MBW              2821    2823-17 2436-26 2262-38 224254 232957 253751
DEN              3525-09 3523-15 2709-24 1934-36 165953 213755 244050
PUB              0138-09 0117-13 3607-24 1517-36 134252 212950 244447
ALS                      3530-13 3514-26 1406-38 250749 262547 253846
TCC      2854    2845-07 2743-14 2734-28 2634-34 246539 246442 238246
BFF      3324    3316-09 2910-14 2322-25 2138-37 207354 225458 234953
GLD      0611    1421-06 1426-10 1637-21 1945-34 184652 195357 236949
GCK      1719+01 2322-03 2028-09 1746-22 1658-35 185547 207050 228650
GAG      2044+03 2028-02 1845-08 1863-23 2069-32 219641 720747 730048
AMA      2440    2535-07 2221-14 2032-25 2359-29 239238 239244 239947
---------------------------------------------------------------------

DATA BASED ON 230000Z
VALID 240000Z   FOR USE 1800-0500Z. TEMPS NEG ABV 24000
FT  3000    6000   9000    12000   18000   24000  30000  34000  39000
SLC      2006    2716-11 2924-18 2962-26 2979-38 800252 800059 288558
BCE                      2930-10 2843-22 3053-34 296449 297057 287161
LND              2729-11 2928-17 2933-31 2943-43 296055 286756 277053
RKS              2731    2930-18 2944-30 3065-42 308152 297854 287555
GJT              2513-10 2929-15 2964-25 2979-37 299351 298956 288256
FMN              3125-07 3033-10 3057-22 2965-34 297048 287056 277357
ABQ              3126-05 3135-08 3051-20 2960-32 286647 276954 268356
MBW              2741    3030-18 2943-31 2948-42 285251 285552 276452
DEN              3039-09 3140-14 2831-28 2965-40 298151 287853 277751
PUB              3017-06 3131-13 2944-25 3080-37 298048 287753 277751
ALS                      2926-12 3061-22 3075-35 298648 288155 268254
TCC      2813    2816-03 3238-09 3162-21 3072-32 287945 268852 259650
BFF      3126    3228-13 3133-18 2935-30 2734-41 263850 264952 275350
GLD      3435    3341-11 3246-14 2938-25 2632-37 274649 275550 265749
GCK      3345-05 3346-08 3142-13 2941-24 2734-37 285346 266947 258046
GAG      3347-04 3251-07 3154-10 2943-23 2846-35 267641 269645 259946
AMA      3223    3142-05 3146-11 3155-22 2972-32 278441 269348 259848
---------------------------------------------------------------------

This product is updated automatically at approximately 10, 30 and 50
minutes after each hour, 24 hours per day, 7 days per week.  It may
become unavailable at times due to system outages without prior notice.
Users are advised to check the time at the top of the product to ensure
that it is current.  Furthermore, content and format of the product are
subject to change without prior notice.

Comments and suggestions are welcome and should be directed to one of
the addresses or phone numbers shown at the bottom of this page.  In
order to expedite a response to comments or suggestions, be sure to
mention your interest in the hot-air balloon forecast.


USA.gov is the U.S. government's official web portal to all federal, state and local government web resources and services.